Time;durP1;ratioP1;P1;durP2;ratioP2;P2;SDS_P1;SDS_P2;PMS_P1;PMS_P2;Temp;Humidity;BMP_temperature;BMP_pressure;BME280_temperature;BME280_humidity;BME280_pressure;Samples;Min_cycle;Max_cycle;Signal;HPM_P1;HPM_P2
2022/10/15 00:02:24;;;;;;;18.83;10.90;;;14.30;99.90;;;;;;5138495;28;20464;-38
2022/10/15 00:04:52;;;;;;;16.77;10.40;;;14.40;99.90;;;;;;5138721;28;20413;-37
2022/10/15 00:07:24;;;;;;;20.50;11.63;;;14.40;99.90;;;;;;5138555;28;20459;-35
2022/10/15 00:09:50;;;;;;;14.77;9.67;;;14.40;99.90;;;;;;5138393;28;20447;-38
2022/10/15 00:12:17;;;;;;;19.80;11.63;;;14.40;99.90;;;;;;5138557;28;20516;-40
2022/10/15 00:14:44;;;;;;;16.17;10.30;;;14.40;99.90;;;;;;5138281;28;20429;-41
2022/10/15 00:17:11;;;;;;;21.77;10.97;;;14.40;99.90;;;;;;5138511;28;20444;-35
2022/10/15 00:19:37;;;;;;;19.40;11.23;;;14.30;99.90;;;;;;5138495;28;20480;-38
2022/10/15 00:22:06;;;;;;;18.10;10.93;;;14.30;99.90;;;;;;5138302;28;20472;-38
2022/10/15 00:24:32;;;;;;;20.60;12.23;;;14.30;99.90;;;;;;5138482;28;20431;-39
2022/10/15 00:26:59;;;;;;;24.50;12.90;;;14.20;99.90;;;;;;5139327;28;20508;-36
2022/10/15 00:29:26;;;;;;;17.53;11.13;;;14.30;99.90;;;;;;5141925;28;20463;-37
2022/10/15 00:31:53;;;;;;;15.23;10.23;;;14.30;99.90;;;;;;5142139;27;20409;-35
2022/10/15 00:34:22;;;;;;;19.50;12.20;;;14.30;99.90;;;;;;5141882;28;20464;-36
2022/10/15 00:36:50;;;;;;;19.13;12.40;;;14.40;99.90;;;;;;5141791;28;20500;-38
2022/10/15 00:39:18;;;;;;;19.10;11.13;;;14.40;99.90;;;;;;5141922;28;20487;-35
2022/10/15 00:41:45;;;;;;;17.83;10.03;;;14.40;99.90;;;;;;5141893;28;20428;-37
2022/10/15 00:44:48;;;;;;;17.17;11.27;;;14.40;99.90;;;;;;5141484;28;20464;-39
2022/10/15 00:47:18;;;;;;;20.67;11.27;;;14.40;99.90;;;;;;5141672;28;20432;-33
2022/10/15 00:49:53;;;;;;;15.23;11.30;;;14.40;99.90;;;;;;5141753;28;20433;-42
2022/10/15 00:52:26;;;;;;;17.63;11.13;;;14.40;99.90;;;;;;5141563;28;20440;-39
2022/10/15 00:55:00;;;;;;;16.13;10.47;;;14.30;99.90;;;;;;5141270;28;20429;-38
2022/10/15 00:57:34;;;;;;;19.80;11.97;;;14.40;99.90;;;;;;5141439;28;20571;-38
2022/10/15 01:00:07;;;;;;;19.70;10.40;;;14.40;99.90;;;;;;5141525;28;20428;-37
2022/10/15 01:02:35;;;;;;;13.90;10.00;;;14.30;99.90;;;;;;5141251;28;20464;-35
2022/10/15 01:05:04;;;;;;;16.33;10.47;;;14.30;99.90;;;;;;5141459;28;20468;-37
2022/10/15 01:07:31;;;;;;;15.93;10.87;;;14.30;99.90;;;;;;5141436;28;20492;-38
2022/10/15 01:10:03;;;;;;;15.97;10.50;;;14.30;99.90;;;;;;5141281;28;20417;-38
2022/10/15 01:12:44;;;;;;;18.73;10.43;;;12.70;99.90;;;;;;5141329;28;20408;-39
2022/10/15 01:15:25;;;;;;;20.37;11.93;;;14.30;99.90;;;;;;5140849;28;20449;-44
2022/10/15 01:17:57;;;;;;;17.40;11.30;;;14.30;99.90;;;;;;5141219;28;20449;-40
2022/10/15 01:20:47;;;;;;;18.20;11.93;;;14.30;99.90;;;;;;5140951;28;20440;-38
2022/10/15 01:23:51;;;;;;;16.10;10.57;;;14.30;99.90;;;;;;5140931;28;20520;-39
2022/10/15 01:26:51;;;;;;;18.97;11.07;;;14.30;99.90;;;;;;5134412;28;20455;-34
2022/10/15 01:29:34;;;;;;;16.97;10.67;;;14.30;99.90;;;;;;5140773;28;20492;-38
2022/10/15 01:32:07;;;;;;;17.40;11.13;;;14.20;99.90;;;;;;5140704;28;20449;-38
2022/10/15 01:34:40;;;;;;;17.33;11.10;;;14.30;99.90;;;;;;5140673;28;20419;-36
2022/10/15 01:37:12;;;;;;;17.37;9.67;;;14.30;99.90;;;;;;5140598;28;20455;-37
2022/10/15 01:39:42;;;;;;;19.27;10.80;;;14.30;99.90;;;;;;5140558;27;20408;-38
2022/10/15 01:42:17;;;;;;;15.13;9.10;;;14.30;99.90;;;;;;5140531;28;20456;-34
2022/10/15 01:44:50;;;;;;;23.10;11.70;;;14.30;99.90;;;;;;5140599;28;20420;-40
2022/10/15 01:47:23;;;;;;;16.97;10.70;;;14.30;99.90;;;;;;5140622;28;20476;-39
2022/10/15 01:49:53;;;;;;;17.60;10.70;;;14.30;99.90;;;;;;5140598;28;20397;-36
2022/10/15 01:52:27;;;;;;;13.30;9.13;;;14.30;99.90;;;;;;5140470;27;20469;-37
2022/10/15 01:54:55;;;;;;;21.00;11.17;;;14.30;99.90;;;;;;5140359;28;20436;-35
2022/10/15 01:57:25;;;;;;;14.30;10.97;;;14.30;99.90;;;;;;5140310;28;20480;-35
2022/10/15 01:59:53;;;;;;;17.37;10.77;;;14.20;99.90;;;;;;5140201;28;20439;-38
2022/10/15 02:02:22;;;;;;;14.50;9.10;;;14.20;99.90;;;;;;5140182;28;20445;-36
2022/10/15 02:04:49;;;;;;;14.87;9.93;;;14.30;99.90;;;;;;5140136;27;20584;-36
2022/10/15 02:07:32;;;;;;;21.57;10.50;;;14.30;99.90;;;;;;5140153;28;20476;-38
2022/10/15 02:10:18;;;;;;;19.70;11.13;;;14.30;99.90;;;;;;5140090;28;20472;-40
2022/10/15 02:12:57;;;;;;;19.90;11.87;;;14.20;99.90;;;;;;5140175;28;20428;-38
2022/10/15 02:15:33;;;;;;;21.10;10.50;;;14.30;99.90;;;;;;5139687;28;20484;-37
2022/10/15 02:18:08;;;;;;;16.83;10.40;;;14.30;99.90;;;;;;5140001;28;20428;-40
2022/10/15 02:20:44;;;;;;;18.50;10.70;;;14.30;99.90;;;;;;5139941;28;20404;-36
2022/10/15 02:23:17;;;;;;;18.63;9.97;;;14.30;99.90;;;;;;5139875;28;20600;-36
2022/10/15 02:25:46;;;;;;;29.17;11.80;;;14.30;99.90;;;;;;5139915;28;20423;-38
2022/10/15 02:28:15;;;;;;;12.60;9.20;;;14.30;99.90;;;;;;5139567;28;20440;-36
2022/10/15 02:30:47;;;;;;;13.77;9.50;;;14.30;99.90;;;;;;5139850;28;20480;-37
2022/10/15 02:33:20;;;;;;;17.70;9.13;;;14.30;99.90;;;;;;5139983;28;20444;-39
2022/10/15 02:35:49;;;;;;;19.23;10.30;;;14.10;99.90;;;;;;5139566;28;20421;-39
2022/10/15 02:38:20;;;;;;;13.77;8.90;;;14.40;99.90;;;;;;5139529;28;20405;-38
2022/10/15 02:40:48;;;;;;;18.43;10.90;;;14.40;99.90;;;;;;5139505;28;20405;-38
2022/10/15 02:43:22;;;;;;;18.90;10.70;;;14.40;99.90;;;;;;5139440;27;20464;-36
2022/10/15 02:45:50;;;;;;;18.40;10.00;;;14.40;99.90;;;;;;5139445;28;20499;-37
2022/10/15 02:48:19;;;;;;;18.50;10.23;;;14.40;99.90;;;;;;5139427;28;20484;-36
2022/10/15 02:50:46;;;;;;;15.87;9.73;;;14.40;99.90;;;;;;5138796;28;20466;-38
2022/10/15 02:53:13;;;;;;;17.17;10.73;;;14.40;99.90;;;;;;5139279;28;20515;-38
2022/10/15 02:55:40;;;;;;;16.37;9.80;;;14.40;99.90;;;;;;5139045;28;20528;-37
2022/10/15 02:58:10;;;;;;;17.17;11.20;;;14.30;99.90;;;;;;5139437;28;20464;-35
2022/10/15 03:00:41;;;;;;;14.90;9.90;;;14.30;99.90;;;;;;5139240;28;20417;-38
2022/10/15 03:03:10;;;;;;;22.43;11.77;;;14.30;99.90;;;;;;5139078;28;20472;-37
2022/10/15 03:05:39;;;;;;;16.60;9.57;;;14.40;99.90;;;;;;5139158;28;20480;-40
2022/10/15 03:08:06;;;;;;;15.53;9.30;;;14.30;99.90;;;;;;5139078;28;20455;-38
2022/10/15 03:10:32;;;;;;;17.90;9.93;;;14.40;99.90;;;;;;5139124;28;20469;-36
2022/10/15 03:13:03;;;;;;;16.30;10.00;;;14.40;99.90;;;;;;5139153;28;20472;-35
2022/10/15 03:15:30;;;;;;;22.10;10.47;;;14.40;99.90;;;;;;5138904;28;20473;-36
2022/10/15 03:17:57;;;;;;;21.33;11.47;;;14.40;99.90;;;;;;5138866;28;20417;-39
2022/10/15 03:20:24;;;;;;;16.13;9.00;;;14.40;99.90;;;;;;5139107;28;20425;-40
2022/10/15 03:22:52;;;;;;;18.20;9.90;;;14.40;99.90;;;;;;5138943;28;20427;-38
2022/10/15 03:25:19;;;;;;;14.77;10.17;;;14.40;99.90;;;;;;5139136;28;20421;-36
2022/10/15 03:27:48;;;;;;;19.83;11.27;;;14.50;99.90;;;;;;5138884;28;20432;-38
2022/10/15 03:30:15;;;;;;;19.13;9.97;;;14.50;99.90;;;;;;5138753;28;20447;-37
2022/10/15 03:32:44;;;;;;;16.93;10.00;;;14.40;99.90;;;;;;5138533;28;20437;-36
2022/10/15 03:35:11;;;;;;;17.23;10.20;;;14.40;99.90;;;;;;5138076;28;20468;-37
2022/10/15 03:37:38;;;;;;;14.40;10.10;;;14.30;99.90;;;;;;5139037;28;20409;-37
2022/10/15 03:40:09;;;;;;;15.87;9.70;;;14.30;99.90;;;;;;5138913;28;20424;-36
2022/10/15 03:42:37;;;;;;;17.00;10.53;;;14.30;99.90;;;;;;5138825;28;20424;-38
2022/10/15 03:45:05;;;;;;;23.67;9.23;;;14.30;99.90;;;;;;5138675;28;20466;-37
2022/10/15 03:47:32;;;;;;;17.73;10.20;;;14.40;99.90;;;;;;5138847;28;20503;-37
2022/10/15 03:50:04;;;;;;;15.70;10.27;;;14.30;99.90;;;;;;5138819;28;20496;-37
2022/10/15 03:52:32;;;;;;;15.40;9.77;;;14.30;99.90;;;;;;5138707;28;20436;-39
2022/10/15 03:54:59;;;;;;;15.20;9.70;;;14.30;99.90;;;;;;5138723;28;20424;-36
2022/10/15 03:57:29;;;;;;;17.07;10.47;;;14.40;99.90;;;;;;5138685;28;20436;-36
2022/10/15 03:59:55;;;;;;;16.60;9.43;;;14.40;99.90;;;;;;5138730;28;20407;-37
2022/10/15 04:02:23;;;;;;;17.77;10.40;;;14.40;99.90;;;;;;5140136;28;20460;-40
2022/10/15 04:04:54;;;;;;;19.40;10.07;;;14.40;99.90;;;;;;5142545;27;20460;-39
2022/10/15 04:07:23;;;;;;;15.00;9.20;;;14.40;99.90;;;;;;5142597;28;20412;-37
2022/10/15 04:09:53;;;;;;;12.70;9.10;;;14.40;99.90;;;;;;5142454;28;20444;-36
2022/10/15 04:12:19;;;;;;;14.33;9.63;;;14.40;99.90;;;;;;5142282;28;20476;-40
2022/10/15 04:14:48;;;;;;;15.70;9.63;;;14.40;99.90;;;;;;5142313;28;20437;-37
2022/10/15 04:17:18;;;;;;;17.90;10.37;;;14.40;99.90;;;;;;5142317;28;20439;-44
2022/10/15 04:19:47;;;;;;;16.77;9.90;;;14.40;99.90;;;;;;5142264;28;20462;-35
2022/10/15 04:22:14;;;;;;;14.20;10.00;;;14.40;99.90;;;;;;5142254;28;20431;-38
2022/10/15 04:24:41;;;;;;;20.63;9.93;;;14.40;99.90;;;;;;5141936;27;20460;-36
2022/10/15 04:27:14;;;;;;;19.40;10.40;;;14.30;99.90;;;;;;5142127;28;20451;-41
2022/10/15 04:29:44;;;;;;;14.63;9.43;;;14.40;99.90;;;;;;5142115;28;20405;-41
2022/10/15 04:32:13;;;;;;;19.60;9.53;;;14.30;99.90;;;;;;5141827;28;20524;-37
2022/10/15 04:34:40;;;;;;;17.10;9.50;;;14.30;99.90;;;;;;5142026;28;20413;-36
2022/10/15 04:37:10;;;;;;;19.73;11.57;;;14.30;99.90;;;;;;5141971;28;20441;-35
2022/10/15 04:39:37;;;;;;;16.97;11.00;;;14.30;99.90;;;;;;5141982;28;20449;-36
2022/10/15 04:42:04;;;;;;;19.43;11.60;;;14.30;99.90;;;;;;5141834;28;20435;-39
2022/10/15 04:44:32;;;;;;;13.97;9.67;;;14.30;99.90;;;;;;5141734;28;20466;-37
2022/10/15 04:47:01;;;;;;;14.60;10.50;;;14.40;99.90;;;;;;5141801;28;20479;-37
2022/10/15 04:49:29;;;;;;;15.83;9.97;;;14.40;99.90;;;;;;5141728;28;20421;-38
2022/10/15 04:51:56;;;;;;;15.73;9.50;;;14.40;99.90;;;;;;5141725;28;20413;-36
2022/10/15 04:54:23;;;;;;;14.40;9.00;;;14.40;99.90;;;;;;5141491;28;20454;-39
2022/10/15 04:56:53;;;;;;;14.53;9.00;;;14.40;99.90;;;;;;5141637;28;20436;-37
2022/10/15 04:59:19;;;;;;;17.07;10.10;;;14.40;99.90;;;;;;5141471;28;20468;-37
2022/10/15 05:01:49;;;;;;;20.50;9.80;;;14.40;99.90;;;;;;5141302;28;20397;-45
2022/10/15 05:04:16;;;;;;;16.03;8.03;;;14.40;99.90;;;;;;5141423;28;20516;-39
2022/10/15 05:53:23;;;;;;;17.27;9.50;;;14.50;99.90;;;;;;3398087;22;20712;-36
2022/10/15 05:55:53;;;;;;;16.13;8.23;;;14.50;99.90;;;;;;5071737;28;20493;-37
2022/10/15 05:58:20;;;;;;;21.43;11.23;;;14.50;99.90;;;;;;5099567;28;20469;-36
2022/10/15 06:00:53;;;;;;;13.37;9.30;;;14.50;99.90;;;;;;5099494;28;20438;-37
2022/10/15 06:03:20;;;;;;;13.90;8.53;;;14.50;99.90;;;;;;5099499;28;20471;-36
2022/10/15 06:05:47;;;;;;;18.80;9.67;;;14.50;99.90;;;;;;5099313;28;20458;-36
2022/10/15 06:08:13;;;;;;;12.83;7.80;;;14.60;99.90;;;;;;5099434;28;20465;-36
2022/10/15 06:10:43;;;;;;;15.63;9.07;;;14.60;99.90;;;;;;5099490;28;20502;-39
2022/10/15 06:13:16;;;;;;;14.50;8.90;;;14.60;99.90;;;;;;5099367;28;20442;-35
2022/10/15 06:15:45;;;;;;;11.17;7.63;;;14.60;99.90;;;;;;5099261;28;20481;-36
2022/10/15 06:18:14;;;;;;;14.53;8.43;;;14.60;99.90;;;;;;5095219;28;20510;-40
2022/10/15 06:20:46;;;;;;;12.60;7.57;;;14.60;99.90;;;;;;5079061;28;20419;-33
2022/10/15 06:23:13;;;;;;;10.83;7.63;;;14.60;99.90;;;;;;5079084;28;20507;-36
2022/10/15 06:25:39;;;;;;;9.33;7.70;;;14.60;99.90;;;;;;5078193;28;20443;-36
2022/10/15 06:28:08;;;;;;;13.70;7.93;;;14.70;99.90;;;;;;5079002;28;20407;-37
2022/10/15 06:30:37;;;;;;;13.63;8.50;;;14.70;99.90;;;;;;5079022;28;20420;-34
2022/10/15 06:33:07;;;;;;;10.27;8.10;;;14.70;99.90;;;;;;5078984;28;20422;-34
2022/10/15 06:35:35;;;;;;;13.10;9.50;;;14.80;99.90;;;;;;5078618;28;20439;-35
2022/10/15 06:38:02;;;;;;;13.90;8.60;;;14.90;99.90;;;;;;5078835;28;20415;-38
2022/10/15 06:40:34;;;;;;;20.57;10.20;;;14.90;99.90;;;;;;5078816;28;20502;-36
2022/10/15 06:43:06;;;;;;;14.60;8.70;;;14.90;99.90;;;;;;5078590;28;20415;-35
2022/10/15 06:45:41;;;;;;;14.57;9.23;;;14.90;99.90;;;;;;5078011;28;20463;-36
2022/10/15 06:48:08;;;;;;;14.90;8.77;;;14.90;99.90;;;;;;5077378;28;20435;-38
2022/10/15 06:50:38;;;;;;;12.97;8.43;;;14.90;99.90;;;;;;5073794;28;20477;-39
2022/10/15 06:53:06;;;;;;;12.73;8.97;;;15.00;99.90;;;;;;5094166;28;20501;-39
2022/10/15 06:55:38;;;;;;;10.87;8.10;;;15.00;99.90;;;;;;5094366;28;20463;-38
2022/10/15 06:58:05;;;;;;;14.33;9.00;;;15.10;99.90;;;;;;5092046;28;20470;-38
2022/10/15 07:00:32;;;;;;;12.97;9.10;;;15.10;99.90;;;;;;5091764;28;20843;-39
2022/10/15 07:03:04;;;;;;;13.20;8.97;;;15.00;99.90;;;;;;5090444;28;20462;-40
2022/10/15 07:05:31;;;;;;;10.43;7.23;;;15.00;99.90;;;;;;5095184;28;20462;-38
2022/10/15 07:08:01;;;;;;;14.57;8.60;;;15.00;99.90;;;;;;5095251;28;20447;-40
2022/10/15 07:10:28;;;;;;;15.33;7.97;;;15.00;99.90;;;;;;5089960;28;20446;-40
2022/10/15 07:12:55;;;;;;;15.30;7.87;;;15.00;99.90;;;;;;5090332;28;20462;-39
2022/10/15 07:15:22;;;;;;;11.47;7.53;;;15.00;99.90;;;;;;5089326;28;20438;-40
2022/10/15 07:17:50;;;;;;;12.63;7.57;;;15.00;99.90;;;;;;5092784;28;20434;-42
2022/10/15 07:20:22;;;;;;;10.30;7.53;;;15.10;99.90;;;;;;5090863;28;20472;-39
2022/10/15 07:22:49;;;;;;;16.10;9.10;;;15.10;99.90;;;;;;5094336;28;20431;-39
2022/10/15 07:25:16;;;;;;;20.90;8.17;;;15.10;99.90;;;;;;5093584;28;20561;-38
2022/10/15 07:27:43;;;;;;;13.80;6.70;;;15.20;99.90;;;;;;5094025;28;20438;-37
2022/10/15 07:30:10;;;;;;;10.70;7.17;;;15.20;99.90;;;;;;5094954;28;20522;-37
2022/10/15 07:32:37;;;;;;;11.23;6.20;;;15.30;99.90;;;;;;5094159;28;20427;-40
2022/10/15 07:35:05;;;;;;;17.80;6.80;;;15.40;99.90;;;;;;5076329;28;20446;-37
2022/10/15 07:37:33;;;;;;;9.23;6.67;;;15.50;99.90;;;;;;5076814;28;20463;-40
2022/10/15 07:40:00;;;;;;;12.80;7.27;;;15.60;99.90;;;;;;5077696;28;20443;-39
2022/10/15 07:42:27;;;;;;;9.20;6.70;;;15.70;99.90;;;;;;5077105;28;20459;-38
2022/10/15 07:44:55;;;;;;;8.93;5.80;;;15.90;99.90;;;;;;5076654;28;20489;-41
2022/10/15 07:47:22;;;;;;;11.03;6.20;;;16.00;99.90;;;;;;5075990;28;20497;-37
2022/10/15 07:49:49;;;;;;;11.20;6.30;;;16.20;99.90;;;;;;5078288;28;20419;-39
2022/10/15 07:52:21;;;;;;;10.67;7.00;;;16.20;99.90;;;;;;5077907;28;20429;-39
2022/10/15 07:54:51;;;;;;;7.90;6.27;;;16.30;99.90;;;;;;5076825;28;20534;-38
2022/10/15 07:57:19;;;;;;;9.83;6.23;;;16.40;99.90;;;;;;5077058;28;20458;-39
2022/10/15 07:59:49;;;;;;;8.60;6.90;;;16.50;99.90;;;;;;5076851;28;20467;-39
2022/10/15 08:02:22;;;;;;;9.20;6.33;;;16.60;99.90;;;;;;5077376;28;20530;-39
2022/10/15 08:04:48;;;;;;;8.60;7.00;;;16.70;99.90;;;;;;5076683;28;20479;-39
2022/10/15 08:07:15;;;;;;;7.73;5.57;;;16.70;99.90;;;;;;5077160;28;20453;-38
2022/10/15 08:09:42;;;;;;;8.07;5.50;;;16.60;99.90;;;;;;5078902;28;20459;-39
2022/10/15 08:12:10;;;;;;;9.97;6.57;;;16.60;99.90;;;;;;5082230;28;20458;-40
2022/10/15 08:14:37;;;;;;;11.07;7.07;;;16.60;99.90;;;;;;5083270;28;20434;-39
2022/10/15 08:17:05;;;;;;;9.93;6.07;;;16.60;99.90;;;;;;5078053;28;20454;-38
2022/10/15 08:19:32;;;;;;;10.17;7.53;;;16.60;99.90;;;;;;5077970;28;20461;-38
2022/10/15 08:21:59;;;;;;;8.33;6.20;;;16.70;99.90;;;;;;5079136;28;20534;-37
2022/10/15 08:24:26;;;;;;;7.23;5.30;;;16.80;99.90;;;;;;5079189;28;20538;-36
2022/10/15 08:26:53;;;;;;;8.00;5.73;;;16.80;99.90;;;;;;5079183;28;20471;-38
2022/10/15 08:29:21;;;;;;;13.17;6.20;;;16.90;99.90;;;;;;5088749;28;20432;-37
2022/10/15 08:31:48;;;;;;;6.83;5.20;;;17.00;99.90;;;;;;5099933;28;20435;-37
2022/10/15 08:34:17;;;;;;;6.70;4.80;;;17.20;99.90;;;;;;5098899;28;20423;-39
2022/10/15 08:36:44;;;;;;;6.40;5.30;;;17.50;99.90;;;;;;5098523;28;20447;-38
2022/10/15 08:39:11;;;;;;;6.83;5.40;;;17.60;99.90;;;;;;5098677;28;20465;-36
2022/10/15 08:41:45;;;;;;;8.70;5.83;;;17.80;99.90;;;;;;5097050;28;20428;-38
2022/10/15 08:44:25;;;;;;;7.90;4.30;;;17.90;99.90;;;;;;5095695;28;20481;-39
2022/10/15 08:46:58;;;;;;;6.30;4.70;;;18.00;99.90;;;;;;5095273;28;20414;-39
2022/10/15 08:49:38;;;;;;;7.63;6.40;;;18.10;99.90;;;;;;5094723;28;20475;-41
2022/10/15 08:52:14;;;;;;;6.53;5.27;;;18.20;99.90;;;;;;5096084;28;20490;-39
2022/10/15 08:54:41;;;;;;;6.30;4.27;;;18.20;99.90;;;;;;5096362;28;20458;-41
2022/10/15 08:57:18;;;;;;;6.97;5.87;;;18.30;99.90;;;;;;5096284;28;20445;-38
2022/10/15 08:59:55;;;;;;;6.67;6.00;;;18.40;99.90;;;;;;5095693;28;20418;-40
2022/10/15 09:02:27;;;;;;;7.53;5.60;;;18.40;99.90;;;;;;5096668;28;20436;-37
2022/10/15 09:05:01;;;;;;;15.33;5.37;;;18.30;99.90;;;;;;5095916;28;20523;-39
2022/10/15 09:07:39;;;;;;;10.97;5.77;;;18.20;99.90;;;;;;5096425;28;20498;-40
2022/10/15 09:10:15;;;;;;;5.80;4.50;;;18.20;99.90;;;;;;5075207;28;20447;-39
2022/10/15 09:12:50;;;;;;;10.17;5.30;;;18.10;99.90;;;;;;5075456;28;20920;-40
2022/10/15 09:15:21;;;;;;;7.60;5.53;;;18.00;99.90;;;;;;5075347;28;20455;-39
2022/10/15 09:17:51;;;;;;;7.70;5.60;;;17.90;99.90;;;;;;5073808;28;20522;-39
2022/10/15 09:20:23;;;;;;;7.47;5.40;;;17.90;99.90;;;;;;5074447;28;20443;-41
2022/10/15 09:22:53;;;;;;;8.23;4.87;;;17.90;99.90;;;;;;5074325;28;20477;-43
2022/10/15 09:25:22;;;;;;;9.90;5.20;;;17.90;99.90;;;;;;5073203;28;20571;-39
2022/10/15 09:27:51;;;;;;;6.50;5.53;;;17.90;99.90;;;;;;5074961;28;20484;-39
2022/10/15 09:30:28;;;;;;;5.70;5.00;;;17.90;99.90;;;;;;5076317;28;20511;-42
2022/10/15 09:33:01;;;;;;;8.60;5.40;;;18.00;99.90;;;;;;5075553;28;20451;-39
2022/10/15 09:35:31;;;;;;;7.60;5.50;;;18.10;99.90;;;;;;5075416;28;20444;-40
2022/10/15 09:38:12;;;;;;;6.87;5.07;;;18.30;99.90;;;;;;5075939;28;20491;-42
2022/10/15 09:40:50;;;;;;;10.43;4.50;;;18.50;99.90;;;;;;5074385;28;20497;-38
2022/10/15 09:43:26;;;;;;;5.23;4.73;;;18.60;99.90;;;;;;5075012;28;20438;-39
2022/10/15 09:45:54;;;;;;;9.77;4.97;;;18.70;99.90;;;;;;5075109;28;20483;-38
2022/10/15 09:48:21;;;;;;;5.90;4.50;;;18.90;99.90;;;;;;5075102;28;20440;-42
2022/10/15 09:50:56;;;;;;;5.73;4.27;;;19.00;99.90;;;;;;5075266;28;20445;-40
2022/10/15 09:53:35;;;;;;;6.53;4.47;;;19.00;99.90;;;;;;5075779;28;20510;-39
2022/10/15 09:56:10;;;;;;;6.07;4.27;;;19.00;99.90;;;;;;5075286;28;20420;-40
2022/10/15 09:58:43;;;;;;;8.00;4.73;;;19.00;99.90;;;;;;5089596;28;20410;-40
2022/10/15 10:01:18;;;;;;;5.87;4.80;;;18.90;99.90;;;;;;5094740;28;20431;-38
2022/10/15 10:03:53;;;;;;;7.40;4.90;;;18.90;99.90;;;;;;5094906;28;20468;-41
2022/10/15 10:06:24;;;;;;;10.07;6.37;;;18.80;99.90;;;;;;5094809;28;20454;-38
2022/10/15 10:08:54;;;;;;;8.37;4.77;;;18.80;99.90;;;;;;5094467;28;20470;-39
2022/10/15 10:11:22;;;;;;;6.03;4.50;;;18.80;99.90;;;;;;5094874;28;20449;-41
2022/10/15 10:13:55;;;;;;;6.00;4.80;;;18.90;99.90;;;;;;5095845;28;20526;-39
2022/10/15 10:16:27;;;;;;;5.60;4.40;;;19.00;99.90;;;;;;5095327;28;20470;-40
2022/10/15 10:19:06;;;;;;;4.80;4.03;;;19.00;99.90;;;;;;5095588;28;20474;-39
2022/10/15 10:21:35;;;;;;;5.00;3.70;;;19.10;99.90;;;;;;5095547;28;20431;-39
2022/10/15 10:24:29;;;;;;;6.57;5.00;;;19.20;99.90;;;;;;5095799;28;20448;-38
2022/10/15 10:26:56;;;;;;;7.50;4.20;;;19.20;99.90;;;;;;5095842;28;20463;-38
2022/10/15 10:29:24;;;;;;;7.63;5.07;;;19.20;99.90;;;;;;5095458;28;20445;-40
2022/10/15 10:31:54;;;;;;;4.50;3.77;;;19.20;99.90;;;;;;5095925;28;20530;-39
2022/10/15 10:34:26;;;;;;;4.17;3.77;;;19.30;99.90;;;;;;5095539;28;20433;-36
2022/10/15 10:36:54;;;;;;;5.27;3.57;;;19.50;99.90;;;;;;5095312;28;20462;-39
2022/10/15 10:39:27;;;;;;;5.77;4.40;;;19.70;99.90;;;;;;5095044;28;20451;-36
2022/10/15 10:41:56;;;;;;;8.57;5.13;;;19.80;99.90;;;;;;5095609;28;20501;-37
2022/10/15 10:44:28;;;;;;;5.40;4.33;;;19.90;99.90;;;;;;5095356;28;20411;-38
2022/10/15 10:47:21;;;;;;;6.57;4.60;;;19.80;99.90;;;;;;5080087;28;20463;-39
2022/10/15 10:49:50;;;;;;;4.30;3.77;;;19.90;99.90;;;;;;5059966;28;20447;-39
2022/10/15 10:52:22;;;;;;;6.33;4.20;;;19.90;99.90;;;;;;5073468;28;20470;-37
2022/10/15 10:54:57;;;;;;;5.03;3.90;;;20.00;99.90;;;;;;5072935;28;20467;-38
2022/10/15 10:57:35;;;;;;;6.00;3.73;;;20.10;99.90;;;;;;5073306;28;20438;-38
2022/10/15 11:00:04;;;;;;;5.73;3.80;;;20.20;99.90;;;;;;5073918;28;20458;-40
2022/10/15 11:02:39;;;;;;;3.60;3.20;;;20.20;99.90;;;;;;5072804;28;20453;-39
2022/10/15 11:05:07;;;;;;;6.47;4.30;;;20.20;99.90;;;;;;5072213;28;20498;-38
2022/10/15 11:07:41;;;;;;;4.60;3.73;;;20.10;99.90;;;;;;5072982;28;20458;-38
2022/10/15 11:10:13;;;;;;;6.83;4.03;;;20.10;99.90;;;;;;5073080;28;20926;-37
2022/10/15 11:12:58;;;;;;;4.90;3.60;;;20.00;99.90;;;;;;5073558;28;20435;-39
2022/10/15 11:15:36;;;;;;;5.23;4.50;;;20.00;99.90;;;;;;5073178;28;20438;-39
2022/10/15 11:18:22;;;;;;;5.60;4.20;;;20.00;99.90;;;;;;5072601;28;20422;-40
2022/10/15 11:20:57;;;;;;;6.00;3.90;;;20.00;99.90;;;;;;5072925;28;20510;-40
2022/10/15 11:23:40;;;;;;;5.27;4.17;;;20.10;99.90;;;;;;5072298;28;20413;-38
2022/10/15 11:26:20;;;;;;;4.97;3.83;;;20.00;99.90;;;;;;5072239;28;20474;-39
2022/10/15 11:28:58;;;;;;;6.50;3.00;;;19.90;99.90;;;;;;5071823;28;20411;-38
2022/10/15 11:31:32;;;;;;;6.07;3.87;;;19.70;99.90;;;;;;5072749;28;20427;-41
2022/10/15 11:34:18;;;;;;;3.97;3.37;;;19.70;99.90;;;;;;5075006;28;20537;-38
2022/10/15 11:36:55;;;;;;;7.73;3.53;;;19.90;99.90;;;;;;5073343;28;20428;-40
2022/10/15 11:39:35;;;;;;;6.30;3.43;;;20.00;99.90;;;;;;5072595;28;20462;-37
2022/10/15 11:42:12;;;;;;;4.00;3.47;;;20.10;99.90;;;;;;5072642;28;20446;-38
2022/10/15 11:45:06;;;;;;;3.43;3.13;;;20.00;99.90;;;;;;5073019;28;20542;-39
2022/10/15 11:47:45;;;;;;;3.87;3.10;;;20.10;99.90;;;;;;5072758;28;20428;-38
2022/10/15 11:50:26;;;;;;;3.83;3.20;;;20.10;99.90;;;;;;5070387;28;20461;-41
2022/10/15 11:53:23;;;;;;;5.77;3.10;;;20.20;99.90;;;;;;5070909;28;20431;-41
2022/10/15 11:55:54;;;;;;;4.70;3.33;;;20.10;99.90;;;;;;5070152;28;20463;-41
2022/10/15 11:58:28;;;;;;;3.20;2.90;;;20.10;99.90;;;;;;5070361;28;20420;-38
2022/10/15 12:01:00;;;;;;;5.40;3.00;;;20.00;99.90;;;;;;5072892;28;20530;-39
2022/10/15 12:03:30;;;;;;;4.73;2.80;;;20.00;99.90;;;;;;5068992;28;20432;-40
2022/10/15 12:06:02;;;;;;;6.20;3.73;;;20.00;99.90;;;;;;5071641;28;20538;-42
2022/10/15 12:08:34;;;;;;;5.27;3.10;;;20.10;99.90;;;;;;5083168;28;20465;-40
2022/10/15 12:11:11;;;;;;;3.70;3.10;;;20.20;99.90;;;;;;5087883;28;20462;-41
2022/10/15 12:13:46;;;;;;;4.37;3.20;;;20.80;99.90;;;;;;5089213;28;20470;-38
2022/10/15 12:16:26;;;;;;;8.33;3.63;;;20.10;99.90;;;;;;5088690;28;20430;-40
2022/10/15 12:19:00;;;;;;;5.10;3.80;;;20.10;99.90;;;;;;5091119;28;20473;-39
2022/10/15 12:21:34;;;;;;;4.63;3.50;;;20.10;99.90;;;;;;5092829;28;20426;-38
2022/10/15 12:24:02;;;;;;;3.20;2.90;;;20.20;99.90;;;;;;5095641;28;20501;-39
2022/10/15 12:26:32;;;;;;;4.73;3.83;;;20.20;99.90;;;;;;5096502;28;20478;-40
2022/10/15 12:29:00;;;;;;;6.07;3.40;;;20.10;99.90;;;;;;5096383;28;20468;-38
2022/10/15 12:31:43;;;;;;;7.43;3.60;;;20.10;99.90;;;;;;5089618;28;20434;-40
2022/10/15 12:34:30;;;;;;;8.10;3.40;;;20.00;99.90;;;;;;5075833;28;20427;-39
2022/10/15 12:37:08;;;;;;;3.13;2.53;;;20.00;99.90;;;;;;5076413;28;20451;-39
2022/10/15 12:39:37;;;;;;;3.30;2.57;;;19.90;99.90;;;;;;5075878;28;20447;-38
2022/10/15 12:42:06;;;;;;;3.60;2.83;;;19.80;99.90;;;;;;5076518;28;20432;-39
2022/10/15 12:44:38;;;;;;;4.07;2.70;;;19.60;99.90;;;;;;5076658;28;20463;-38
2022/10/15 12:47:10;;;;;;;4.27;3.60;;;19.70;99.90;;;;;;5076946;28;20511;-41
2022/10/15 12:49:56;;;;;;;4.43;3.30;;;19.70;99.90;;;;;;5076985;28;20443;-39
2022/10/15 12:52:54;;;;;;;4.50;3.30;;;19.70;99.90;;;;;;5077961;28;20479;-40
2022/10/15 12:55:27;;;;;;;3.23;2.80;;;19.80;99.90;;;;;;5076205;28;20498;-39
2022/10/15 12:58:06;;;;;;;3.60;3.23;;;19.80;99.90;;;;;;5075936;28;20431;-39
2022/10/15 13:00:41;;;;;;;2.63;2.43;;;19.80;99.90;;;;;;5076065;28;20465;-39
2022/10/15 13:03:38;;;;;;;5.53;4.23;;;19.80;99.90;;;;;;5075923;28;20462;-40
2022/10/15 13:06:26;;;;;;;3.37;3.07;;;19.80;99.90;;;;;;5075701;28;20491;-39
2022/10/15 13:09:00;;;;;;;5.10;2.67;;;19.80;99.90;;;;;;5075924;28;20436;-40
2022/10/15 13:11:30;;;;;;;3.60;3.00;;;19.80;99.90;;;;;;5076320;28;20451;-38
2022/10/15 13:14:00;;;;;;;3.77;2.90;;;19.80;99.90;;;;;;5076256;28;20473;-39
2022/10/15 13:16:27;;;;;;;2.50;2.10;;;19.70;99.90;;;;;;5121550;22;20893;-41
2022/10/15 13:18:56;;;;;;;3.50;3.20;;;19.70;99.90;;;;;;5092258;28;20847;-40
2022/10/15 13:21:23;;;;;;;5.83;2.90;;;19.60;99.90;;;;;;5092404;28;20487;-39
2022/10/15 13:23:51;;;;;;;3.47;2.50;;;19.60;99.90;;;;;;5091912;28;20915;-39
2022/10/15 13:26:25;;;;;;;4.80;2.60;;;19.50;99.90;;;;;;5091907;28;20512;-42
2022/10/15 13:28:53;;;;;;;4.70;3.17;;;19.40;99.90;;;;;;5092058;28;20538;-42
2022/10/15 13:31:23;;;;;;;2.73;2.43;;;19.40;99.90;;;;;;5092552;28;20466;-42
2022/10/15 13:33:53;;;;;;;5.00;3.27;;;19.40;99.90;;;;;;5091939;28;20450;-40
2022/10/15 13:36:23;;;;;;;5.03;2.83;;;19.30;99.90;;;;;;5092637;28;20454;-40
2022/10/15 13:39:04;;;;;;;4.07;2.70;;;19.30;99.90;;;;;;5092511;28;20491;-41
2022/10/15 13:41:36;;;;;;;5.90;2.40;;;19.20;99.90;;;;;;5091597;28;20458;-40
2022/10/15 13:44:04;;;;;;;2.93;2.37;;;19.20;99.90;;;;;;5091717;28;20457;-42
2022/10/15 13:46:35;;;;;;;3.93;2.80;;;19.10;99.90;;;;;;5091323;28;20493;-40
2022/10/15 13:49:04;;;;;;;6.00;2.80;;;19.10;99.90;;;;;;5092105;28;20517;-41